< < Back
Terminal Aerodrome Forecast


Current Version              Previous Versions:   1  2  3  4  5  6  7  8  9  

Terminal Aerodrome Forecast

383
FTUS42 KILM 210500
TAFFLO
TAF
KFLO 210523Z 2106/2206 04006KT 4SM BR FEW009 SCT030 BKN060
     FM211500 05008KT P6SM -RA BKN025 BKN050
     FM220300 03008KT 6SM -RA BR SCT008 OVC015=



Latest METAR

022
SAUS70 KWBC 211400 RRD
MTRFLO
METAR KFLO 211353Z 02006KT 7SM BKN042 OVC090 06/02 A3028 RMK AO2 SLP253
T00560022


USA.gov is the U.S. government's official web portal to all federal, state and local government web resources and services.